La rose des vents
Donnes mto: Semaine 28/07/08 - 03/08/08 (S 31)
Date Horaire Temp. E. Hum. E. P.atmo. Pluie Vent 1mn Direction Ensoleilleme Ev.Tr. Solaire P. de rose Temp au vent Rafales
28/07/2008 00:00 23,5 C 68 % 1012,8 hPa 0,0 l/m 2,4 km/h (1 Bft) N-NO 0,00 h 0,051 mm 0 W/m 17,2 C 23,5 C 3,8 km/h (1 Bft)
28/07/2008 01:00 23,5 C 66 % 1012,7 hPa 0,0 l/m 4,2 km/h (1 Bft) O-NO 0,00 h 0,051 mm 0 W/m 16,7 C 23,5 C 5,7 km/h (1 Bft)
28/07/2008 02:00 23,2 C 66 % 1012,5 hPa 0,0 l/m 3,5 km/h (1 Bft) O-NO 0,00 h 0,051 mm 0 W/m 16,3 C 23,2 C 5,4 km/h (1 Bft)
28/07/2008 03:00 22,8 C 66 % 1012,3 hPa 0,0 l/m 4,5 km/h (1 Bft) O 0,00 h 0,051 mm 0 W/m 16,0 C 22,8 C 5,9 km/h (2 Bft)
28/07/2008 04:00 22,9 C 65 % 1012,2 hPa 0,0 l/m 4,8 km/h (1 Bft) O 0,00 h 0,051 mm 0 W/m 15,9 C 22,9 C 6,5 km/h (2 Bft)
28/07/2008 05:00 22,3 C 66 % 1012,1 hPa 0,0 l/m 3,1 km/h (1 Bft) NO 0,00 h 0,051 mm 0 W/m 15,7 C 22,3 C 4,9 km/h (1 Bft)
28/07/2008 06:00 22,3 C 66 % 1012,4 hPa 0,0 l/m 2,4 km/h (1 Bft) NO 0,02 h 0,025 mm 16 W/m 15,7 C 22,3 C 3,3 km/h (1 Bft)
28/07/2008 07:00 22,6 C 67 % 1012,8 hPa 0,0 l/m 0,8 km/h (0 Bft) NO 0,17 h 0,025 mm 77 W/m 16,1 C 22,6 C 2,1 km/h (1 Bft)
28/07/2008 08:00 25,0 C 61 % 1013,2 hPa 0,0 l/m 0,5 km/h (0 Bft) NO 0,98 h 0,051 mm 263 W/m 16,9 C 25,0 C 1,8 km/h (1 Bft)
28/07/2008 09:00 28,2 C 53 % 1013,3 hPa 0,0 l/m 3,5 km/h (1 Bft) NE 1,00 h 0,178 mm 427 W/m 17,6 C 28,2 C 6,2 km/h (2 Bft)
28/07/2008 10:00 29,5 C 51 % 1013,3 hPa 0,0 l/m 6,1 km/h (2 Bft) E 1,00 h 0,330 mm 583 W/m 18,3 C 29,5 C 9,9 km/h (2 Bft)
28/07/2008 11:00 29,8 C 51 % 1013,4 hPa 0,0 l/m 9,2 km/h (2 Bft) E 1,00 h 0,457 mm 714 W/m 18,5 C 29,8 C 14,8 km/h (3 Bft)
28/07/2008 12:00 30,4 C 49 % 1013,3 hPa 0,0 l/m 11,4 km/h (2 Bft) S 1,00 h 0,559 mm 833 W/m 18,4 C 30,4 C 17,3 km/h (3 Bft)
28/07/2008 13:00 30,4 C 48 % 1013,0 hPa 0,0 l/m 13,7 km/h (3 Bft) S 0,70 h 0,660 mm 724 W/m 18,3 C 30,4 C 19,1 km/h (3 Bft)
28/07/2008 14:00 30,9 C 46 % 1012,6 hPa 0,0 l/m 16,0 km/h (3 Bft) S 1,00 h 0,635 mm 828 W/m 18,0 C 30,9 C 22,3 km/h (4 Bft)
28/07/2008 15:00 30,3 C 47 % 1012,8 hPa 0,0 l/m 13,3 km/h (3 Bft) S-SE 0,67 h 0,711 mm 640 W/m 17,7 C 30,3 C 19,6 km/h (3 Bft)
28/07/2008 16:00 29,5 C 49 % 1012,8 hPa 0,0 l/m 9,3 km/h (2 Bft) S-SE 1,00 h 0,559 mm 609 W/m 17,7 C 29,5 C 14,7 km/h (3 Bft)
28/07/2008 17:00 28,7 C 51 % 1012,8 hPa 0,0 l/m 7,6 km/h (2 Bft) S-SE 0,67 h 0,483 mm 360 W/m 17,6 C 28,7 C 12,3 km/h (3 Bft)
28/07/2008 18:00 27,7 C 55 % 1012,9 hPa 0,0 l/m 6,6 km/h (2 Bft) S-SE 0,43 h 0,305 mm 205 W/m 17,8 C 27,7 C 9,8 km/h (2 Bft)
28/07/2008 19:00 27,8 C 55 % 1012,7 hPa 0,0 l/m 1,8 km/h (1 Bft) SE 0,90 h 0,203 mm 152 W/m 17,9 C 27,8 C 3,7 km/h (1 Bft)
28/07/2008 20:00 26,3 C 59 % 1012,5 hPa 0,0 l/m 4,1 km/h (1 Bft) S-SO 0,00 h 0,127 mm 26 W/m 17,5 C 26,3 C 6,0 km/h (2 Bft)
28/07/2008 21:00 24,7 C 63 % 1013,0 hPa 0,0 l/m 1,2 km/h (1 Bft) O-SO 0,00 h 0,051 mm 0 W/m 17,2 C 24,7 C 2,2 km/h (1 Bft)
28/07/2008 22:00 23,7 C 68 % 1013,4 hPa 0,0 l/m 1,7 km/h (1 Bft) O-NO 0,00 h 0,025 mm 0 W/m 17,4 C 23,7 C 3,3 km/h (1 Bft)
28/07/2008 23:00 23,2 C 70 % 1013,6 hPa 0,0 l/m 0,4 km/h (0 Bft) O-NO 0,00 h 0,051 mm 0 W/m 17,5 C 23,2 C 1,0 km/h (0 Bft)
29/07/2008 00:00 23,0 C 71 % 1013,7 hPa 0,0 l/m 3,1 km/h (1 Bft) O 0,00 h 0,025 mm 0 W/m 17,4 C 23,0 C 4,0 km/h (1 Bft)
29/07/2008 01:00 23,0 C 69 % 1013,6 hPa 0,0 l/m 4,1 km/h (1 Bft) O 0,00 h 0,051 mm 0 W/m 17,0 C 23,0 C 6,2 km/h (2 Bft)
29/07/2008 02:00 22,1 C 72 % 1013,4 hPa 0,0 l/m 3,9 km/h (1 Bft) O-NO 0,00 h 0,051 mm 0 W/m 16,8 C 22,1 C 5,6 km/h (1 Bft)
29/07/2008 03:00 22,3 C 72 % 1013,3 hPa 0,0 l/m 4,7 km/h (1 Bft) O-NO 0,00 h 0,051 mm 0 W/m 16,9 C 22,3 C 6,7 km/h (2 Bft)
29/07/2008 04:00 22,3 C 73 % 1013,3 hPa 0,0 l/m 1,5 km/h (1 Bft) N-NO 0,00 h 0,051 mm 0 W/m 17,2 C 22,3 C 2,5 km/h (1 Bft)
29/07/2008 05:00 22,5 C 71 % 1013,2 hPa 0,0 l/m 2,9 km/h (1 Bft) N-NO 0,00 h 0,025 mm 0 W/m 16,9 C 22,5 C 4,5 km/h (1 Bft)
29/07/2008 06:00 22,3 C 72 % 1013,4 hPa 0,0 l/m 3,6 km/h (1 Bft) O-NO 0,05 h 0,025 mm 18 W/m 17,0 C 22,3 C 5,3 km/h (1 Bft)
29/07/2008 07:00 23,3 C 70 % 1013,8 hPa 0,0 l/m 1,3 km/h (1 Bft) O-NO 0,00 h 0,025 mm 71 W/m 17,5 C 23,3 C 2,2 km/h (1 Bft)
29/07/2008 08:00 25,5 C 63 % 1014,0 hPa 0,0 l/m 0,9 km/h (0 Bft) S-SO 0,88 h 0,051 mm 291 W/m 17,8 C 25,5 C 2,1 km/h (1 Bft)
29/07/2008 09:00 27,6 C 57 % 1014,4 hPa 0,0 l/m 2,2 km/h (1 Bft) E-SE 1,00 h 0,203 mm 433 W/m 18,4 C 27,6 C 4,4 km/h (1 Bft)
29/07/2008 10:00 30,0 C 48 % 1014,5 hPa 0,0 l/m 3,9 km/h (1 Bft) SO 1,00 h 0,305 mm 585 W/m 17,9 C 30,0 C 7,4 km/h (2 Bft)
29/07/2008 11:00 30,7 C 49 % 1014,8 hPa 0,0 l/m 9,9 km/h (2 Bft) E 1,00 h 0,432 mm 712 W/m 18,6 C 30,7 C 14,6 km/h (3 Bft)
29/07/2008 12:00 31,3 C 46 % 1014,8 hPa 0,0 l/m 8,9 km/h (2 Bft) E 1,00 h 0,584 mm 786 W/m 18,5 C 31,3 C 13,5 km/h (3 Bft)
29/07/2008 13:00 31,4 C 46 % 1014,8 hPa 0,0 l/m 9,2 km/h (2 Bft) E 1,00 h 0,610 mm 862 W/m 18,2 C 31,4 C 13,9 km/h (3 Bft)
29/07/2008 14:00 32,2 C 45 % 1014,4 hPa 0,0 l/m 11,0 km/h (2 Bft) E 1,00 h 0,686 mm 841 W/m 18,9 C 32,2 C 15,8 km/h (3 Bft)
29/07/2008 15:00 32,0 C 45 % 1014,3 hPa 0,0 l/m 6,9 km/h (2 Bft) S 1,00 h 0,686 mm 744 W/m 18,4 C 32,0 C 11,3 km/h (2 Bft)
29/07/2008 16:00 31,6 C 44 % 1014,2 hPa 0,0 l/m 6,9 km/h (2 Bft) S 1,00 h 0,584 mm 640 W/m 18,0 C 31,6 C 11,9 km/h (2 Bft)
29/07/2008 17:00 30,9 C 40 % 1014,4 hPa 0,0 l/m 6,2 km/h (2 Bft) S 1,00 h 0,508 mm 528 W/m 15,6 C 30,9 C 10,3 km/h (2 Bft)
29/07/2008 18:00 30,1 C 40 % 1014,5 hPa 0,0 l/m 5,0 km/h (1 Bft) S-SE 0,95 h 0,432 mm 330 W/m 14,8 C 30,1 C 8,2 km/h (2 Bft)
29/07/2008 19:00 29,3 C 43 % 1014,3 hPa 0,0 l/m 3,0 km/h (1 Bft) S 0,98 h 0,279 mm 169 W/m 15,2 C 29,3 C 4,8 km/h (1 Bft)
29/07/2008 20:00 27,3 C 57 % 1014,3 hPa 0,0 l/m 0,5 km/h (0 Bft) E-SE 0,00 h 0,152 mm 21 W/m 18,0 C 27,3 C 1,4 km/h (1 Bft)
29/07/2008 21:00 24,8 C 67 % 1014,3 hPa 0,0 l/m 1,0 km/h (0 Bft) N 0,00 h 0,025 mm 0 W/m 18,3 C 24,8 C 1,9 km/h (1 Bft)
29/07/2008 22:00 24,1 C 63 % 1014,4 hPa 0,0 l/m 1,9 km/h (1 Bft) N 0,00 h 0,025 mm 0 W/m 16,5 C 24,1 C 3,8 km/h (1 Bft)
29/07/2008 23:00 24,2 C 60 % 1014,3 hPa 0,0 l/m 1,3 km/h (1 Bft) N 0,00 h 0,051 mm 0 W/m 15,9 C 24,2 C 2,2 km/h (1 Bft)
30/07/2008 00:00 23,3 C 62 % 1014,7 hPa 0,0 l/m 1,2 km/h (1 Bft) N 0,00 h 0,051 mm 0 W/m 15,6 C 23,3 C 2,0 km/h (1 Bft)
30/07/2008 01:00 22,6 C 66 % 1015,0 hPa 0,0 l/m 1,3 km/h (1 Bft) N 0,00 h 0,051 mm 0 W/m 15,9 C 22,6 C 2,1 km/h (1 Bft)
30/07/2008 02:00 22,2 C 68 % 1014,9 hPa 0,0 l/m 1,1 km/h (0 Bft) N 0,00 h 0,051 mm 0 W/m 16,1 C 22,2 C 1,8 km/h (1 Bft)
30/07/2008 03:00 22,2 C 66 % 1015,1 hPa 0,0 l/m 1,9 km/h (1 Bft) N 0,00 h 0,051 mm 0 W/m 15,6 C 22,2 C 3,3 km/h (1 Bft)
30/07/2008 04:00 21,8 C 67 % 1015,3 hPa 0,0 l/m 1,6 km/h (1 Bft) N 0,00 h 0,051 mm 0 W/m 15,4 C 21,8 C 3,0 km/h (1 Bft)
30/07/2008 05:00 20,9 C 72 % 1015,5 hPa 0,0 l/m 1,2 km/h (1 Bft) N 0,00 h 0,051 mm 0 W/m 15,7 C 20,9 C 2,2 km/h (1 Bft)
30/07/2008 06:00 20,8 C 72 % 1015,5 hPa 0,0 l/m 4,6 km/h (1 Bft) O-NO 0,00 h 0,025 mm 14 W/m 15,5 C 20,8 C 7,1 km/h (2 Bft)
30/07/2008 07:00 21,9 C 69 % 1015,7 hPa 0,0 l/m 1,4 km/h (1 Bft) NO 0,18 h 0,025 mm 70 W/m 15,8 C 21,9 C 2,9 km/h (1 Bft)
30/07/2008 08:00 25,4 C 58 % 1015,9 hPa 0,0 l/m 0,4 km/h (0 Bft) N-NO 1,00 h 0,051 mm 277 W/m 16,4 C 25,4 C 1,9 km/h (1 Bft)
30/07/2008 09:00 27,8 C 51 % 1016,1 hPa 0,0 l/m 1,3 km/h (1 Bft) E 1,00 h 0,178 mm 425 W/m 16,8 C 27,8 C 2,8 km/h (1 Bft)
30/07/2008 10:00 29,8 C 46 % 1016,2 hPa 0,0 l/m 4,8 km/h (1 Bft) E-SE 1,00 h 0,305 mm 590 W/m 17,0 C 29,8 C 8,1 km/h (2 Bft)
30/07/2008 11:00 30,9 C 45 % 1016,3 hPa 0,0 l/m 6,1 km/h (2 Bft) E 1,00 h 0,457 mm 737 W/m 17,4 C 30,9 C 10,7 km/h (2 Bft)
30/07/2008 12:00 31,3 C 42 % 1016,3 hPa 0,0 l/m 10,8 km/h (2 Bft) E 1,00 h 0,559 mm 819 W/m 16,7 C 31,3 C 15,7 km/h (3 Bft)
30/07/2008 13:00 31,3 C 43 % 1016,0 hPa 0,0 l/m 10,8 km/h (2 Bft) E 1,00 h 0,660 mm 845 W/m 17,3 C 31,3 C 15,6 km/h (3 Bft)
30/07/2008 14:00 31,2 C 48 % 1015,8 hPa 0,0 l/m 10,4 km/h (2 Bft) E 1,00 h 0,686 mm 821 W/m 18,9 C 31,2 C 15,6 km/h (3 Bft)
30/07/2008 15:00 31,7 C 52 % 1015,4 hPa 0,0 l/m 9,9 km/h (2 Bft) E 1,00 h 0,660 mm 758 W/m 20,5 C 31,7 C 14,6 km/h (3 Bft)
30/07/2008 16:00 31,5 C 53 % 1014,9 hPa 0,0 l/m 8,4 km/h (2 Bft) E 1,00 h 0,610 mm 645 W/m 20,6 C 31,5 C 13,5 km/h (3 Bft)
30/07/2008 17:00 30,8 C 53 % 1014,8 hPa 0,0 l/m 7,1 km/h (2 Bft) E 1,00 h 0,508 mm 498 W/m 20,2 C 30,8 C 11,7 km/h (2 Bft)
30/07/2008 18:00 29,6 C 58 % 1014,7 hPa 0,0 l/m 4,0 km/h (1 Bft) E 0,87 h 0,406 mm 302 W/m 20,4 C 29,6 C 6,8 km/h (2 Bft)
30/07/2008 19:00 26,8 C 70 % 1014,6 hPa 0,0 l/m 3,6 km/h (1 Bft) E-NE 0,70 h 0,229 mm 106 W/m 20,9 C 26,8 C 5,7 km/h (1 Bft)
30/07/2008 20:00 25,7 C 73 % 1014,6 hPa 0,0 l/m 2,2 km/h (1 Bft) NE 0,45 h 0,102 mm 38 W/m 20,4 C 25,7 C 3,7 km/h (1 Bft)
30/07/2008 21:00 23,9 C 77 % 1014,5 hPa 0,0 l/m 0,1 km/h (0 Bft) NE 0,00 h 0,051 mm 0 W/m 19,6 C 23,9 C 0,4 km/h (0 Bft)
30/07/2008 22:00 22,8 C 81 % 1014,7 hPa 0,0 l/m 1,2 km/h (1 Bft) NE 0,00 h 0,000 mm 0 W/m 19,4 C 22,8 C 2,3 km/h (1 Bft)
30/07/2008 23:00 22,4 C 84 % 1015,1 hPa 0,0 l/m 2,6 km/h (1 Bft) NE 0,00 h 0,025 mm 0 W/m 19,6 C 22,4 C 3,9 km/h (1 Bft)
31/07/2008 00:00 21,9 C 86 % 1015,0 hPa 0,0 l/m 1,8 km/h (1 Bft) O-NO 0,00 h 0,025 mm 0 W/m 19,4 C 21,9 C 2,8 km/h (1 Bft)
31/07/2008 01:00 21,8 C 86 % 1014,8 hPa 0,0 l/m 1,8 km/h (1 Bft) N 0,00 h 0,025 mm 0 W/m 19,3 C 21,8 C 2,7 km/h (1 Bft)
31/07/2008 02:00 21,2 C 86 % 1014,8 hPa 0,0 l/m 1,3 km/h (1 Bft) N 0,00 h 0,025 mm 0 W/m 18,9 C 21,2 C 2,7 km/h (1 Bft)
31/07/2008 03:00 21,4 C 88 % 1015,0 hPa 0,0 l/m 2,3 km/h (1 Bft) N-NO 0,00 h 0,025 mm 0 W/m 19,4 C 21,4 C 3,4 km/h (1 Bft)
31/07/2008 04:00 21,0 C 90 % 1015,3 hPa 0,0 l/m 2,2 km/h (1 Bft) N-NO 0,00 h 0,025 mm 0 W/m 19,3 C 21,0 C 3,6 km/h (1 Bft)
31/07/2008 05:00 20,3 C 91 % 1015,1 hPa 0,0 l/m 2,0 km/h (1 Bft) NO 0,00 h 0,025 mm 0 W/m 18,8 C 20,3 C 3,7 km/h (1 Bft)
31/07/2008 06:00 20,2 C 91 % 1015,4 hPa 0,0 l/m 2,0 km/h (1 Bft) NO 0,00 h 0,000 mm 12 W/m 18,6 C 20,2 C 3,0 km/h (1 Bft)
31/07/2008 07:00 21,2 C 75 % 1015,4 hPa 0,0 l/m 3,4 km/h (1 Bft) O-NO 0,18 h 0,000 mm 63 W/m 16,5 C 21,2 C 5,5 km/h (1 Bft)
31/07/2008 08:00 24,8 C 60 % 1015,5 hPa 0,0 l/m 0,3 km/h (0 Bft) O-NO 1,00 h 0,051 mm 284 W/m 16,5 C 24,8 C 1,3 km/h (1 Bft)
31/07/2008 09:00 27,5 C 55 % 1015,5 hPa 0,0 l/m 1,8 km/h (1 Bft) S 1,00 h 0,178 mm 455 W/m 17,5 C 27,5 C 4,1 km/h (1 Bft)
31/07/2008 10:00 29,7 C 46 % 1015,5 hPa 0,0 l/m 5,9 km/h (2 Bft) E 1,00 h 0,305 mm 606 W/m 16,9 C 29,7 C 8,8 km/h (2 Bft)
31/07/2008 11:00 31,4 C 43 % 1015,7 hPa 0,0 l/m 6,9 km/h (2 Bft) E 1,00 h 0,457 mm 727 W/m 17,3 C 31,4 C 10,8 km/h (2 Bft)
31/07/2008 12:00 31,9 C 42 % 1015,6 hPa 0,0 l/m 10,1 km/h (2 Bft) E 1,00 h 0,559 mm 813 W/m 17,4 C 31,9 C 14,8 km/h (3 Bft)
31/07/2008 13:00 31,7 C 40 % 1015,4 hPa 0,0 l/m 10,1 km/h (2 Bft) E 1,00 h 0,660 mm 841 W/m 16,2 C 31,7 C 15,0 km/h (3 Bft)
31/07/2008 14:00 31,6 C 40 % 1015,3 hPa 0,0 l/m 8,2 km/h (2 Bft) E 1,00 h 0,686 mm 821 W/m 16,2 C 31,6 C 13,3 km/h (3 Bft)
31/07/2008 15:00 31,3 C 44 % 1014,9 hPa 0,0 l/m 10,4 km/h (2 Bft) E 1,00 h 0,660 mm 749 W/m 17,6 C 31,3 C 15,1 km/h (3 Bft)
31/07/2008 16:00 31,3 C 45 % 1014,4 hPa 0,0 l/m 8,0 km/h (2 Bft) E 1,00 h 0,610 mm 639 W/m 18,0 C 31,3 C 12,2 km/h (2 Bft)
31/07/2008 17:00 31,1 C 50 % 1014,0 hPa 0,0 l/m 5,8 km/h (2 Bft) E 1,00 h 0,508 mm 493 W/m 19,3 C 31,1 C 9,4 km/h (2 Bft)
31/07/2008 18:00 29,3 C 62 % 1013,9 hPa 0,0 l/m 6,6 km/h (2 Bft) E-NE 1,00 h 0,406 mm 318 W/m 21,2 C 29,3 C 9,6 km/h (2 Bft)
31/07/2008 19:00 27,7 C 69 % 1013,7 hPa 0,0 l/m 2,8 km/h (1 Bft) E 0,95 h 0,254 mm 151 W/m 21,3 C 27,7 C 5,1 km/h (1 Bft)
31/07/2008 20:00 25,7 C 78 % 1013,6 hPa 0,0 l/m 0,2 km/h (0 Bft) E 0,02 h 0,127 mm 22 W/m 21,6 C 25,7 C 1,0 km/h (0 Bft)
31/07/2008 21:00 24,2 C 85 % 1013,7 hPa 0,0 l/m 0,1 km/h (0 Bft) E 0,00 h 0,025 mm 0 W/m 21,4 C 24,2 C 0,2 km/h (0 Bft)
31/07/2008 22:00 23,0 C 87 % 1014,3 hPa 0,0 l/m 0,0 km/h (0 Bft) N 0,00 h 0,000 mm 0 W/m 20,7 C 23,0 C 0,0 km/h (0 Bft)
31/07/2008 23:00 22,4 C 87 % 1014,3 hPa 0,0 l/m 0,7 km/h (0 Bft) E 0,00 h 0,050 mm 0 W/m 20,2 C 22,4 C 1,3 km/h (1 Bft)
01/08/2008 00:00 21,9 C 89 % 1014,4 hPa 0,0 l/m 0,7 km/h (0 Bft) E 0,00 h 0,000 mm 0 W/m 20,0 C 21,9 C 1,8 km/h (1 Bft)
01/08/2008 01:00 21,4 C 89 % 1014,6 hPa 0,0 l/m 0,6 km/h (0 Bft) E 0,00 h 0,025 mm 0 W/m 19,5 C 21,4 C 1,4 km/h (1 Bft)
01/08/2008 02:00 20,8 C 89 % 1014,7 hPa 0,0 l/m 0,6 km/h (0 Bft) E 0,00 h 0,025 mm 0 W/m 18,9 C 20,8 C 1,8 km/h (1 Bft)
01/08/2008 03:00 20,8 C 89 % 1014,5 hPa 0,0 l/m 0,7 km/h (0 Bft) E 0,00 h 0,025 mm 0 W/m 18,9 C 20,8 C 1,5 km/h (1 Bft)
01/08/2008 04:00 21,0 C 88 % 1014,4 hPa 0,0 l/m 1,6 km/h (1 Bft) E 0,00 h 0,025 mm 0 W/m 18,9 C 21,0 C 2,5 km/h (1 Bft)
01/08/2008 05:00 20,5 C 82 % 1014,4 hPa 0,0 l/m 1,3 km/h (1 Bft) E 0,00 h 0,025 mm 0 W/m 17,3 C 20,5 C 2,3 km/h (1 Bft)
01/08/2008 06:00 20,6 C 79 % 1014,5 hPa 0,0 l/m 1,7 km/h (1 Bft) E 0,03 h 0,000 mm 14 W/m 17,0 C 20,6 C 2,4 km/h (1 Bft)
01/08/2008 07:00 21,4 C 76 % 1014,6 hPa 0,0 l/m 3,7 km/h (1 Bft) E 0,08 h 0,025 mm 59 W/m 16,9 C 21,4 C 5,2 km/h (1 Bft)
01/08/2008 08:00 24,6 C 69 % 1014,6 hPa 0,0 l/m 1,6 km/h (1 Bft) O-SO 1,00 h 0,051 mm 283 W/m 18,4 C 24,6 C 3,1 km/h (1 Bft)
01/08/2008 09:00 27,7 C 55 % 1014,8 hPa 0,0 l/m 2,1 km/h (1 Bft) E 1,00 h 0,178 mm 453 W/m 17,7 C 27,7 C 4,1 km/h (1 Bft)
01/08/2008 10:00 29,7 C 46 % 1014,9 hPa 0,0 l/m 4,9 km/h (1 Bft) E 1,00 h 0,305 mm 611 W/m 16,7 C 29,7 C 8,1 km/h (2 Bft)
01/08/2008 11:00 30,6 C 46 % 1015,0 hPa 0,0 l/m 8,4 km/h (2 Bft) E 1,00 h 0,457 mm 743 W/m 17,6 C 30,6 C 13,1 km/h (3 Bft)
01/08/2008 12:00 31,4 C 45 % 1014,7 hPa 0,0 l/m 8,5 km/h (2 Bft) E 1,00 h 0,584 mm 829 W/m 18,0 C 31,4 C 13,4 km/h (3 Bft)
01/08/2008 13:00 31,6 C 44 % 1014,4 hPa 0,0 l/m 10,6 km/h (2 Bft) E 1,00 h 0,635 mm 747 W/m 17,8 C 31,6 C 15,6 km/h (3 Bft)
01/08/2008 14:00 31,2 C 48 % 1014,4 hPa 0,0 l/m 9,1 km/h (2 Bft) E 0,83 h 0,610 mm 709 W/m 18,9 C 31,2 C 13,7 km/h (3 Bft)
01/08/2008 15:00 29,5 C 57 % 1014,3 hPa 0,0 l/m 8,1 km/h (2 Bft) E-NE 0,33 h 0,559 mm 441 W/m 19,9 C 29,5 C 12,6 km/h (3 Bft)
01/08/2008 16:00 29,0 C 65 % 1013,9 hPa 0,0 l/m 6,5 km/h (2 Bft) E 0,67 h 0,381 mm 543 W/m 21,7 C 29,0 C 9,9 km/h (2 Bft)
01/08/2008 17:00 29,7 C 63 % 1013,5 hPa 0,0 l/m 5,7 km/h (1 Bft) E 0,98 h 0,406 mm 485 W/m 21,7 C 29,7 C 9,3 km/h (2 Bft)
01/08/2008 18:00 28,5 C 64 % 1013,1 hPa 0,0 l/m 5,9 km/h (2 Bft) S-SE 0,45 h 0,356 mm 231 W/m 21,0 C 28,5 C 8,5 km/h (2 Bft)
01/08/2008 19:00 27,4 C 69 % 1012,8 hPa 0,0 l/m 2,2 km/h (1 Bft) NE 0,50 h 0,203 mm 120 W/m 21,3 C 27,4 C 4,0 km/h (1 Bft)
01/08/2008 20:00 25,8 C 75 % 1012,5 hPa 0,0 l/m 1,0 km/h (0 Bft) NE 0,08 h 0,102 mm 27 W/m 21,0 C 25,8 C 2,1 km/h (1 Bft)
01/08/2008 21:00 24,2 C 78 % 1012,6 hPa 0,0 l/m 0,2 km/h (0 Bft) NE 0,00 h 0,025 mm 0 W/m 20,1 C 24,2 C 0,5 km/h (0 Bft)
01/08/2008 22:00 23,2 C 80 % 1013,1 hPa 0,0 l/m 0,1 km/h (0 Bft) NE 0,00 h 0,000 mm 0 W/m 19,6 C 23,2 C 0,5 km/h (0 Bft)
01/08/2008 23:00 23,0 C 82 % 1013,2 hPa 0,0 l/m 0,1 km/h (0 Bft) NE 0,00 h 0,025 mm 0 W/m 19,8 C 23,0 C 0,4 km/h (0 Bft)
02/08/2008 00:00 22,9 C 85 % 1013,4 hPa 0,0 l/m 0,7 km/h (0 Bft) NE 0,00 h 0,025 mm 0 W/m 20,2 C 22,9 C 1,4 km/h (1 Bft)
02/08/2008 01:00 22,4 C 85 % 1013,6 hPa 0,0 l/m 2,6 km/h (1 Bft) E-NE 0,00 h 0,025 mm 0 W/m 19,8 C 22,4 C 4,2 km/h (1 Bft)
02/08/2008 02:00 22,4 C 87 % 1013,7 hPa 0,0 l/m 1,9 km/h (1 Bft) NO 0,00 h 0,025 mm 0 W/m 20,1 C 22,4 C 3,0 km/h (1 Bft)
02/08/2008 03:00 22,0 C 88 % 1013,7 hPa 0,0 l/m 1,5 km/h (1 Bft) NO 0,00 h 0,025 mm 0 W/m 20,0 C 22,0 C 2,8 km/h (1 Bft)
02/08/2008 04:00 21,3 C 88 % 1013,7 hPa 0,0 l/m 3,2 km/h (1 Bft) NO 0,00 h 0,025 mm 0 W/m 19,2 C 21,3 C 4,6 km/h (1 Bft)
02/08/2008 05:00 21,1 C 72 % 1013,4 hPa 0,0 l/m 5,3 km/h (1 Bft) O 0,00 h 0,025 mm 0 W/m 15,8 C 21,1 C 7,8 km/h (2 Bft)
02/08/2008 06:00 21,3 C 69 % 1013,6 hPa 0,0 l/m 2,8 km/h (1 Bft) N-NO 0,03 h 0,025 mm 15 W/m 15,4 C 21,3 C 4,4 km/h (1 Bft)
02/08/2008 07:00 22,0 C 69 % 1014,2 hPa 0,0 l/m 1,2 km/h (1 Bft) N 0,17 h 0,025 mm 66 W/m 16,1 C 22,0 C 3,1 km/h (1 Bft)
02/08/2008 08:00 25,0 C 62 % 1014,4 hPa 0,0 l/m 1,3 km/h (1 Bft) NE 1,00 h 0,051 mm 263 W/m 17,1 C 25,0 C 2,7 km/h (1 Bft)
02/08/2008 09:00 27,1 C 63 % 1014,8 hPa 0,0 l/m 5,5 km/h (1 Bft) E 1,00 h 0,178 mm 428 W/m 19,3 C 27,1 C 8,6 km/h (2 Bft)
02/08/2008 10:00 27,7 C 65 % 1015,0 hPa 0,0 l/m 7,4 km/h (2 Bft) E 0,92 h 0,305 mm 555 W/m 20,6 C 27,7 C 11,7 km/h (2 Bft)
02/08/2008 11:00 28,4 C 65 % 1015,1 hPa 0,0 l/m 8,7 km/h (2 Bft) E 1,00 h 0,406 mm 717 W/m 21,2 C 28,4 C 14,1 km/h (3 Bft)
02/08/2008 12:00 29,0 C 64 % 1015,0 hPa 0,0 l/m 9,2 km/h (2 Bft) E 1,00 h 0,533 mm 800 W/m 21,4 C 29,0 C 14,9 km/h (3 Bft)
02/08/2008 13:00 29,3 C 63 % 1014,8 hPa 0,0 l/m 11,1 km/h (2 Bft) E 1,00 h 0,584 mm 830 W/m 21,5 C 29,3 C 16,7 km/h (3 Bft)
02/08/2008 14:00 29,2 C 63 % 1014,8 hPa 0,0 l/m 11,6 km/h (2 Bft) E 0,85 h 0,635 mm 752 W/m 21,3 C 29,2 C 17,1 km/h (3 Bft)
02/08/2008 15:00 29,0 C 67 % 1014,6 hPa 0,0 l/m 9,8 km/h (2 Bft) E 0,88 h 0,559 mm 765 W/m 22,1 C 29,0 C 14,9 km/h (3 Bft)
02/08/2008 16:00 29,1 C 64 % 1014,3 hPa 0,0 l/m 9,6 km/h (2 Bft) E 0,95 h 0,559 mm 624 W/m 21,7 C 29,1 C 14,4 km/h (3 Bft)
02/08/2008 17:00 28,3 C 66 % 1014,0 hPa 0,0 l/m 7,5 km/h (2 Bft) E 0,50 h 0,483 mm 317 W/m 21,3 C 28,3 C 11,0 km/h (2 Bft)
02/08/2008 18:00 28,2 C 64 % 1013,9 hPa 0,0 l/m 5,2 km/h (1 Bft) E 0,95 h 0,254 mm 288 W/m 20,8 C 28,2 C 8,6 km/h (2 Bft)
02/08/2008 19:00 26,8 C 69 % 1013,6 hPa 0,0 l/m 2,2 km/h (1 Bft) E 0,55 h 0,229 mm 111 W/m 20,5 C 26,8 C 4,8 km/h (1 Bft)
02/08/2008 20:00 25,5 C 75 % 1013,3 hPa 0,0 l/m 0,3 km/h (0 Bft) E 0,00 h 0,102 mm 20 W/m 20,8 C 25,5 C 1,1 km/h (0 Bft)
02/08/2008 21:00 24,0 C 81 % 1013,4 hPa 0,0 l/m 2,2 km/h (1 Bft) E 0,00 h 0,025 mm 0 W/m 20,4 C 24,0 C 4,2 km/h (1 Bft)
02/08/2008 22:00 23,0 C 85 % 1014,1 hPa 0,0 l/m 1,0 km/h (0 Bft) E 0,00 h 0,025 mm 0 W/m 20,3 C 23,0 C 2,3 km/h (1 Bft)
02/08/2008 23:00 22,2 C 87 % 1014,3 hPa 0,0 l/m 1,1 km/h (1 Bft) E 0,00 h 0,025 mm 0 W/m 19,9 C 22,2 C 2,6 km/h (1 Bft)
03/08/2008 00:00 22,5 C 88 % 1014,3 hPa 0,0 l/m 0,3 km/h (0 Bft) E 0,00 h 0,025 mm 0 W/m 20,5 C 22,5 C 0,8 km/h (0 Bft)
03/08/2008 01:00 22,0 C 89 % 1014,0 hPa 0,0 l/m 0,6 km/h (0 Bft) E 0,00 h 0,025 mm 0 W/m 20,1 C 22,0 C 1,6 km/h (1 Bft)
03/08/2008 02:00 21,5 C 90 % 1013,9 hPa 0,0 l/m 2,5 km/h (1 Bft) E 0,00 h 0,025 mm 0 W/m 19,8 C 21,5 C 3,8 km/h (1 Bft)
03/08/2008 03:00 21,1 C 91 % 1013,8 hPa 0,0 l/m 2,7 km/h (1 Bft) NO 0,00 h 0,025 mm 0 W/m 19,5 C 21,1 C 4,3 km/h (1 Bft)
03/08/2008 04:00 21,1 C 90 % 1013,7 hPa 0,0 l/m 2,3 km/h (1 Bft) NO 0,00 h 0,025 mm 0 W/m 19,4 C 21,1 C 4,0 km/h (1 Bft)
03/08/2008 05:00 21,1 C 88 % 1013,4 hPa 0,0 l/m 2,1 km/h (1 Bft) N-NO 0,00 h 0,025 mm 0 W/m 19,1 C 21,1 C 3,6 km/h (1 Bft)
03/08/2008 06:00 20,8 C 86 % 1013,8 hPa 0,0 l/m 3,2 km/h (1 Bft) O-NO 0,02 h 0,000 mm 14 W/m 18,4 C 20,8 C 5,4 km/h (1 Bft)
03/08/2008 07:00 21,2 C 79 % 1014,1 hPa 0,0 l/m 2,9 km/h (1 Bft) NO 0,13 h 0,025 mm 63 W/m 17,3 C 21,2 C 4,5 km/h (1 Bft)
03/08/2008 08:00 24,1 C 72 % 1014,4 hPa 0,0 l/m 0,6 km/h (0 Bft) NO 0,83 h 0,051 mm 231 W/m 18,7 C 24,1 C 2,0 km/h (1 Bft)
03/08/2008 09:00 26,7 C 70 % 1014,4 hPa 0,0 l/m 6,1 km/h (2 Bft) NE 1,00 h 0,152 mm 439 W/m 20,7 C 26,7 C 9,3 km/h (2 Bft)
03/08/2008 10:00 28,1 C 68 % 1014,5 hPa 0,0 l/m 8,7 km/h (2 Bft) E 1,00 h 0,330 mm 602 W/m 21,6 C 28,1 C 13,8 km/h (3 Bft)
03/08/2008 11:00 28,3 C 70 % 1014,8 hPa 0,0 l/m 9,8 km/h (2 Bft) E 1,00 h 0,457 mm 725 W/m 22,3 C 28,3 C 15,1 km/h (3 Bft)
03/08/2008 12:00 28,7 C 69 % 1014,9 hPa 0,0 l/m 9,9 km/h (2 Bft) E 1,00 h 0,533 mm 842 W/m 22,5 C 28,7 C 15,8 km/h (3 Bft)
03/08/2008 13:00 29,0 C 68 % 1015,0 hPa 0,0 l/m 8,2 km/h (2 Bft) E 1,00 h 0,584 mm 957 W/m 22,3 C 29,0 C 13,9 km/h (3 Bft)
03/08/2008 14:00 29,0 C 66 % 1014,9 hPa 0,0 l/m 8,5 km/h (2 Bft) E 0,92 h 0,584 mm 807 W/m 22,0 C 29,0 C 14,3 km/h (3 Bft)
03/08/2008 15:00 30,2 C 59 % 1014,9 hPa 0,0 l/m 9,3 km/h (2 Bft) E-NE 1,00 h 0,584 mm 770 W/m 21,2 C 30,2 C 13,8 km/h (3 Bft)
03/08/2008 16:00 29,9 C 54 % 1014,5 hPa 0,0 l/m 7,8 km/h (2 Bft) E 1,00 h 0,584 mm 638 W/m 19,6 C 29,9 C 11,9 km/h (2 Bft)
03/08/2008 17:00 29,9 C 50 % 1014,0 hPa 0,0 l/m 5,1 km/h (1 Bft) E-NE 1,00 h 0,483 mm 485 W/m 18,3 C 29,9 C 8,4 km/h (2 Bft)
03/08/2008 18:00 28,6 C 58 % 1013,8 hPa 0,0 l/m 4,2 km/h (1 Bft) E 1,00 h 0,381 mm 312 W/m 19,6 C 28,6 C 7,1 km/h (2 Bft)
03/08/2008 19:00 27,2 C 65 % 1013,4 hPa 0,0 l/m 1,9 km/h (1 Bft) E 0,92 h 0,254 mm 147 W/m 20,0 C 27,2 C 4,0 km/h (1 Bft)
03/08/2008 20:00 25,3 C 75 % 1013,5 hPa 0,0 l/m 0,4 km/h (0 Bft) E 0,03 h 0,102 mm 22 W/m 20,6 C 25,3 C 1,1 km/h (1 Bft)
03/08/2008 21:00 23,7 C 80 % 1013,8 hPa 0,0 l/m 0,0 km/h (0 Bft) N 0,00 h 0,025 mm 0 W/m 20,1 C 23,7 C 0,0 km/h (0 Bft)
03/08/2008 22:00 23,1 C 84 % 1014,3 hPa 0,0 l/m 0,0 km/h (0 Bft) N 0,00 h 0,000 mm 0 W/m 20,3 C 23,1 C 0,0 km/h (0 Bft)
03/08/2008 23:00 22,3 C 86 % 1014,0 hPa 0,0 l/m 1,0 km/h (0 Bft) E 0,00 h 0,025 mm 0 W/m 19,9 C 22,3 C 2,0 km/h (1 Bft)
Min-Date _ 31/07/08 30/07/08 28/07/08 - 28/07/08 - - - - 29/07/08 31/07/08 28/07/08
_ Min-Heure 07:02 12:20 05:15 - 00:15 - - - - 19:15 07:02 00:28
Minimum _ 19,7 C 35 % 1012,0 hPa - 0,0 km/h (0 Bft) - - - - 14,0 C 19,7 C 0,0 km/h (0 Bft)
Max-Date _ 29/07/08 31/07/08 30/07/08 28/07/08 28/07/08 - 28/07/08 28/07/08 03/08/08 03/08/08 29/07/08 28/07/08
_ Max-Heure 14:33 04:45 12:00 00:00 13:52 - 06:27 15:00 13:40 12:54 14:33 12:42
Maximum _ 33,1 C 91 % 1016,4 hPa 0,0 l/m 22,5 km/h
S (4 Bft)
- 0,02 h 0,711 mm 1028 W/m 23,1 C 33,1 C 29,0 km/h
S (5 Bft)
Moyenne _ 25,9 C 66 % 1014,2 hPa #0,0 l/m 4,3 km/h (1 Bft) E #79:22 h #38,671 mm 451 W/m 18,6 C 25,9 C 6,9 km/h (2 Bft)
Roquefort les pins